createdAt,value
2018-11-20T00:02:12.688Z,95646.9
2018-11-20T00:07:09.131Z,95629
2018-11-20T00:12:05.613Z,95543.1
2018-11-20T00:17:02.148Z,95644.2
2018-11-20T00:21:58.399Z,95647.3
2018-11-20T00:26:55.016Z,95648.4
2018-11-20T00:31:51.350Z,95641
2018-11-20T00:36:47.776Z,95627.8
2018-11-20T00:41:44.115Z,95638.6
2018-11-20T00:46:40.693Z,95650.7
2018-11-20T00:51:37.210Z,95658.4
2018-11-20T00:56:34.041Z,95650.6
2018-11-20T01:01:30.504Z,95635.3
2018-11-20T01:06:26.945Z,95641.3
2018-11-20T01:11:23.468Z,95644.5
2018-11-20T01:16:20.137Z,95649.9
2018-11-20T01:21:16.584Z,95540.3
2018-11-20T01:26:13.122Z,95641.6
2018-11-20T01:31:09.490Z,95640.9
2018-11-20T01:36:06.202Z,95631.1
2018-11-20T01:41:02.679Z,95624.5
2018-11-20T01:45:59.189Z,95612.3
2018-11-20T01:50:55.627Z,95617.4
2018-11-20T01:55:52.384Z,95615.9
2018-11-20T02:00:48.919Z,95626
2018-11-20T02:05:45.328Z,95623
2018-11-20T02:10:41.735Z,95538.4
2018-11-20T02:15:38.310Z,95525.5
2018-11-20T02:20:34.821Z,95601.8
2018-11-20T02:25:31.154Z,95607.1
2018-11-20T02:30:27.768Z,95503.1
2018-11-20T02:35:24.464Z,95594.6
2018-11-20T02:40:20.763Z,95521
2018-11-20T02:45:17.485Z,95608
2018-11-20T02:50:14.718Z,95525.5
2018-11-20T02:55:11.118Z,95637.7
2018-11-20T03:00:07.903Z,95637
2018-11-20T03:05:04.353Z,95651
2018-11-20T03:10:00.804Z,95652.8
2018-11-20T03:14:57.227Z,95650
2018-11-20T03:19:53.707Z,95637.8
2018-11-20T03:24:50.459Z,95639.3
2018-11-20T03:29:47.011Z,95648
2018-11-20T03:34:43.356Z,95643.7
2018-11-20T03:39:39.674Z,95646.6
2018-11-20T03:44:36.158Z,95652.1
2018-11-20T03:49:32.760Z,95659.2
2018-11-20T03:54:29.633Z,95659.7
2018-11-20T03:59:26.223Z,95660.2
2018-11-20T04:04:22.996Z,95646.8
2018-11-20T04:09:19.527Z,95654.7
2018-11-20T04:14:16.062Z,95667.6
2018-11-20T04:19:12.507Z,95579.9
2018-11-20T04:24:09.135Z,95667.8
2018-11-20T04:29:05.716Z,95658.6
2018-11-20T04:34:02.524Z,95644.4
2018-11-20T04:38:58.956Z,95644.6
2018-11-20T04:43:55.613Z,95647.2
2018-11-20T04:48:52.070Z,95648.3
2018-11-20T04:53:49.170Z,95645.1
2018-11-20T04:58:45.960Z,95648.3
2018-11-20T05:03:42.589Z,95671.1
2018-11-20T05:08:39.303Z,95670.2
2018-11-20T05:13:35.697Z,95547.3
2018-11-20T05:18:31.973Z,95690
2018-11-20T05:23:28.553Z,94780.3
2018-11-20T05:28:24.691Z,95684.8
2018-11-20T05:33:21.230Z,95678.1
2018-11-20T05:38:17.900Z,95662.5
2018-11-20T05:43:14.473Z,95673.7
2018-11-20T05:48:11.159Z,95693.3
2018-11-20T05:53:07.789Z,95681
2018-11-20T05:58:04.555Z,95684.6
2018-11-20T06:03:01.218Z,95697.1
2018-11-20T06:07:57.911Z,95686
2018-11-20T06:12:54.692Z,95650.5
2018-11-20T06:17:51.096Z,95690.6
2018-11-20T06:22:47.639Z,95688.7
2018-11-20T06:27:44.329Z,95701.6
2018-11-20T06:32:40.830Z,95697
2018-11-20T06:37:37.385Z,95671.6
2018-11-20T06:42:33.834Z,95700.5
2018-11-20T06:47:30.494Z,95713.5
2018-11-20T06:52:27.224Z,95711.5
2018-11-20T06:57:24.267Z,95716.9
2018-11-20T07:02:20.946Z,95724.3
2018-11-20T07:07:17.426Z,95623.6
2018-11-20T07:12:14.043Z,95702
2018-11-20T07:17:10.386Z,95622.5
2018-11-20T07:22:06.852Z,95612.8
2018-11-20T07:27:03.532Z,95715
2018-11-20T07:32:00.220Z,95719.8
2018-11-20T07:36:56.785Z,95646.2
2018-11-20T07:41:53.176Z,95725.4
2018-11-20T07:46:49.540Z,95720
2018-11-20T07:51:46.020Z,95729.8
2018-11-20T07:56:42.403Z,95725.9
2018-11-20T08:01:39.153Z,95643.6
2018-11-20T08:06:35.518Z,95720.2
2018-11-20T08:11:31.949Z,95731.5
2018-11-20T08:16:28.676Z,95663.2
2018-11-20T08:21:25.383Z,95736.3
2018-11-20T08:26:22.394Z,95748.8
2018-11-20T08:31:18.723Z,95744.6
2018-11-20T08:36:15.437Z,95749.3
2018-11-20T08:41:11.994Z,95746.5
2018-11-20T08:46:08.529Z,95750.8
2018-11-20T08:51:05.518Z,95737.9
2018-11-20T08:56:01.869Z,95747.8
2018-11-20T09:00:58.286Z,95731.6
2018-11-20T09:05:54.832Z,95721.6
2018-11-20T09:10:51.485Z,95704.6
2018-11-20T09:15:48.021Z,95707.4
2018-11-20T09:20:44.522Z,95699.4
2018-11-20T09:25:41.200Z,95575.9
2018-11-20T09:30:37.610Z,95687.7
2018-11-20T09:35:34.405Z,95686.6
2018-11-20T09:40:30.584Z,95601.7
2018-11-20T09:45:26.987Z,95673.6
2018-11-20T09:50:23.385Z,95655.1
2018-11-20T09:55:19.945Z,95653.2
2018-11-20T10:00:16.072Z,95593.8
2018-11-20T10:05:12.642Z,95642.5
2018-11-20T10:10:09.039Z,95651.8
2018-11-20T10:15:05.736Z,95650.2
2018-11-20T10:20:02.240Z,95637.7
2018-11-20T10:24:58.844Z,95651.2
2018-11-20T10:29:55.345Z,95606.3
2018-11-20T10:34:52.011Z,95655.3
2018-11-20T10:39:48.357Z,95638.8
2018-11-20T10:44:45.052Z,95655.7
2018-11-20T10:49:41.541Z,95635.9
2018-11-20T10:54:38.215Z,95628.6
2018-11-20T10:59:34.389Z,95637.9
2018-11-20T11:04:30.978Z,95644.4
2018-11-20T11:09:27.384Z,95605.9
2018-11-20T11:14:24.037Z,95633.2
2018-11-20T11:19:20.742Z,95647
2018-11-20T11:24:17.528Z,95582.9
2018-11-20T11:29:14.047Z,95603.5
2018-11-20T11:34:10.630Z,95526.4
2018-11-20T11:39:07.121Z,95607
2018-11-20T11:44:03.536Z,95616.1
2018-11-20T11:48:59.999Z,95619.5
2018-11-20T11:53:56.575Z,95585.6
2018-11-20T11:58:53.396Z,95600.2
2018-11-20T12:03:49.396Z,95584.7
2018-11-20T12:08:45.975Z,95580.6
2018-11-20T12:13:42.367Z,95585
2018-11-20T12:18:38.904Z,95612.8
2018-11-20T12:23:35.471Z,95561.7
2018-11-20T12:28:32.691Z,95572.4
2018-11-20T12:33:28.503Z,95564.1
2018-11-20T12:38:25.124Z,95550.9
2018-11-20T12:43:21.483Z,95558.6
2018-11-20T12:48:18.051Z,95563.8
2018-11-20T12:53:14.990Z,95473.5
2018-11-20T12:58:11.508Z,95561.6
2018-11-20T13:03:08.019Z,95564
2018-11-20T13:08:04.315Z,95556.9
2018-11-20T13:13:01.298Z,95476.1
2018-11-20T13:17:57.775Z,95553.7
2018-11-20T13:22:54.382Z,95552
2018-11-20T13:27:50.838Z,95555.7
2018-11-20T13:32:47.411Z,95553.1
2018-11-20T13:37:43.674Z,95546.8
2018-11-20T13:42:40.212Z,95536.5
2018-11-20T13:47:36.709Z,95537.3
2018-11-20T13:52:33.035Z,95544
2018-11-20T13:57:29.551Z,95547.5
2018-11-20T14:02:26.290Z,95539.1
2018-11-20T14:07:22.759Z,95544.1
2018-11-20T14:12:19.216Z,95532.8
2018-11-20T14:17:15.026Z,95530.4
2018-11-20T14:22:11.647Z,95536.6
2018-11-20T14:27:08.176Z,95530
2018-11-20T14:32:04.722Z,95532.2
2018-11-20T14:37:01.152Z,95531.5
2018-11-20T14:41:57.966Z,95503.7
2018-11-20T14:46:54.307Z,95519.9
2018-11-20T14:51:50.958Z,95522.2
2018-11-20T14:56:47.471Z,95514.8
2018-11-20T15:01:43.514Z,95503.7
2018-11-20T15:06:40.193Z,95505.3
2018-11-20T15:11:36.633Z,95505
2018-11-20T15:16:33.259Z,95486.7
2018-11-20T15:21:29.761Z,95494.5
2018-11-20T15:26:26.111Z,95499.7
2018-11-20T15:31:22.749Z,95492
2018-11-20T15:36:19.201Z,95494.5
2018-11-20T15:41:15.577Z,95494.8
2018-11-20T15:46:12.608Z,95462.1
2018-11-20T15:51:08.829Z,95486.7
2018-11-20T15:56:05.562Z,95474.7
2018-11-20T16:01:02.296Z,95489.5
2018-11-20T16:05:58.810Z,95399.4
2018-11-20T16:10:55.327Z,95478.2
2018-11-20T16:15:51.802Z,95478.9
2018-11-20T16:20:48.555Z,95385.8
2018-11-20T16:25:45.031Z,95475.8
2018-11-20T16:30:41.045Z,95388.5
2018-11-20T16:35:37.074Z,95488
2018-11-20T16:40:33.473Z,95497
2018-11-20T16:45:29.997Z,95485.9
2018-11-20T16:50:26.354Z,95498.1
2018-11-20T16:55:23.546Z,95490.6
2018-11-20T17:00:20.159Z,95490.1
2018-11-20T17:05:16.809Z,95499.5
2018-11-20T17:10:13.426Z,95494.6
2018-11-20T17:15:09.719Z,95497.1
2018-11-20T17:20:06.353Z,95499.2
2018-11-20T17:25:03.269Z,95491.2
2018-11-20T17:29:59.516Z,95485.8
2018-11-20T17:34:56.010Z,95505.9
2018-11-20T17:39:52.106Z,95510.9
2018-11-20T17:44:53.429Z,95517.2
2018-11-20T17:49:44.330Z,95490.3
2018-11-20T17:54:41.440Z,95488.2
2018-11-20T17:59:38.129Z,95497.1
2018-11-20T18:04:34.667Z,95509.3
2018-11-20T18:09:31.229Z,95494.8
2018-11-20T18:14:27.794Z,95483.3
2018-11-20T18:19:24.397Z,95490.8
2018-11-20T18:24:23.310Z,95486.2
2018-11-20T18:29:17.148Z,95483.5
2018-11-20T18:34:13.678Z,95482.2
2018-11-20T18:39:10.173Z,95485.2
2018-11-20T18:44:06.572Z,95483.8
2018-11-20T18:49:03.013Z,95478.3
2018-11-20T18:53:59.741Z,95483.5
2018-11-20T18:58:56.481Z,95477.4
2018-11-20T19:03:53.054Z,95456
2018-11-20T19:08:50.255Z,95478.8
2018-11-20T19:13:46.088Z,95486.4
2018-11-20T19:18:42.609Z,95481.9
2018-11-20T19:23:39.473Z,95450.4
2018-11-20T19:28:36.109Z,95486.2
2018-11-20T19:33:32.603Z,95476.8
2018-11-20T19:38:29.147Z,95486.6
2018-11-20T19:48:34.720Z,95470.8
2018-11-20T19:53:31.216Z,95466.4
2018-11-20T19:58:27.885Z,95465.2
2018-11-20T20:03:24.445Z,95464.4
2018-11-20T20:08:20.852Z,95477.7
2018-11-20T20:13:17.254Z,95481.4
2018-11-20T20:18:13.906Z,95494.1
2018-11-20T20:23:10.600Z,95496.5
2018-11-20T20:28:07.465Z,95494.6
2018-11-20T20:33:03.866Z,95455.3
2018-11-20T20:38:00.493Z,95465.9
2018-11-20T20:42:56.970Z,95475
2018-11-20T20:47:53.371Z,95462
2018-11-20T20:52:50.033Z,95476.3
2018-11-20T20:57:46.530Z,95464.7
2018-11-20T21:02:42.950Z,95465.9
2018-11-20T21:07:43.156Z,95466.1
2018-11-20T21:12:36.230Z,95468.6
2018-11-20T21:17:33.131Z,95460.4
2018-11-20T21:22:29.504Z,95469.2
2018-11-20T21:27:25.909Z,95436
2018-11-20T21:32:22.745Z,95442.3
2018-11-20T21:37:19.275Z,95440.3
2018-11-20T21:42:15.998Z,95439.5
2018-11-20T21:47:12.640Z,95422.6
2018-11-20T21:52:09.121Z,95444.1
2018-11-20T21:57:06.133Z,95445.8
2018-11-20T22:02:02.583Z,95422.7
2018-11-20T22:06:59.155Z,95418.5
2018-11-20T22:11:55.778Z,95420.8
2018-11-20T22:16:52.188Z,95380.4
2018-11-20T22:21:49.012Z,95425.7
2018-11-20T22:26:46.501Z,95426.4
2018-11-20T22:31:42.539Z,95415.2
2018-11-20T22:36:38.764Z,95410.4
2018-11-20T22:41:35.503Z,95408
2018-11-20T22:46:32.118Z,95398.4
2018-11-20T22:51:28.665Z,95404.4
2018-11-20T22:56:25.882Z,95406.9
2018-11-20T23:01:22.502Z,95392.2
2018-11-20T23:06:19.029Z,95399
2018-11-20T23:11:15.447Z,95358.4
2018-11-20T23:16:12.053Z,95382.8
2018-11-20T23:21:08.596Z,95379.6
2018-11-20T23:26:05.194Z,95388.5
2018-11-20T23:31:01.651Z,95369.7
2018-11-20T23:35:58.238Z,95360.3
2018-11-20T23:40:54.840Z,95369.6
2018-11-20T23:45:51.210Z,95362
2018-11-20T23:50:47.703Z,95259.6
2018-11-20T23:55:44.866Z,95336.1
